createdAt,value
2022-07-30T00:02:01.407Z,57.74
2022-07-30T00:04:29.036Z,58.09
2022-07-30T00:06:56.752Z,58.31
2022-07-30T00:09:24.352Z,58.56
2022-07-30T00:11:52.002Z,58.81
2022-07-30T00:14:19.641Z,59.49
2022-07-30T00:16:48.733Z,59.95
2022-07-30T00:19:16.397Z,60.48
2022-07-30T00:21:44.116Z,60.60
2022-07-30T00:24:11.994Z,60.98
2022-07-30T00:26:39.985Z,61.18
2022-07-30T00:29:07.900Z,61.60
2022-07-30T00:31:35.550Z,62.09
2022-07-30T00:34:04.821Z,62.55
2022-07-30T00:36:32.685Z,63.50
2022-07-30T00:39:00.446Z,63.73
2022-07-30T00:41:29.196Z,64.07
2022-07-30T00:43:56.837Z,64.26
2022-07-30T00:46:24.680Z,64.69
2022-07-30T00:48:52.448Z,65.05
2022-07-30T00:51:21.640Z,65.12
2022-07-30T00:53:49.296Z,65.33
2022-07-30T00:56:16.960Z,65.53
2022-07-30T00:58:44.637Z,65.52
2022-07-30T01:01:12.315Z,65.82
2022-07-30T01:03:40.008Z,66.42
2022-07-30T01:06:07.732Z,66.42
2022-07-30T01:08:44.137Z,66.63
2022-07-30T01:11:12.746Z,67.09
2022-07-30T01:13:43.525Z,66.96
2022-07-30T01:16:11.489Z,67.35
2022-07-30T01:18:58.255Z,67.32
2022-07-30T01:21:35.995Z,68.17
2022-07-30T01:24:16.337Z,68.15
2022-07-30T01:26:45.442Z,68.10
2022-07-30T01:29:16.012Z,68.45
2022-07-30T01:31:46.670Z,68.54
2022-07-30T01:34:17.330Z,68.85
2022-07-30T01:36:47.898Z,69.28
2022-07-30T01:39:18.562Z,69.79
2022-07-30T01:41:50.870Z,70.42
2022-07-30T01:44:23.993Z,70.64
2022-07-30T01:46:55.356Z,70.64
2022-07-30T01:49:24.874Z,70.76
2022-07-30T01:51:54.724Z,71.23
2022-07-30T01:54:24.904Z,71.57
2022-07-30T01:56:57.586Z,72.13
2022-07-30T01:59:27.621Z,72.13
2022-07-30T02:01:55.408Z,71.74
2022-07-30T02:04:23.987Z,72.30
2022-07-30T02:07:00.716Z,72.30
2022-07-30T02:09:32.252Z,72.20
2022-07-30T02:12:20.583Z,72.48
2022-07-30T02:14:51.565Z,72.62
2022-07-30T02:17:30.056Z,72.61
2022-07-30T02:20:00.060Z,72.91
2022-07-30T02:22:32.569Z,73.11
2022-07-30T02:25:03.778Z,73.04
2022-07-30T02:27:36.311Z,73.38
2022-07-30T02:30:07.522Z,73.52
2022-07-30T02:32:38.453Z,74.12
2022-07-30T02:35:13.008Z,74.66
2022-07-30T02:37:44.436Z,74.41
2022-07-30T02:40:16.840Z,74.84
2022-07-30T02:42:48.351Z,74.97
2022-07-30T02:45:21.135Z,75.31
2022-07-30T02:47:53.170Z,75.80
2022-07-30T02:50:22.908Z,75.96
2022-07-30T02:52:52.609Z,76.40
2022-07-30T02:55:21.129Z,77.23
2022-07-30T02:57:52.415Z,77.22
2022-07-30T03:00:22.299Z,77.44
2022-07-30T03:02:52.521Z,77.82
2022-07-30T03:05:24.484Z,78.39
2022-07-30T03:07:55.969Z,78.29
2022-07-30T03:10:25.220Z,78.93
2022-07-30T03:12:55.909Z,78.97
2022-07-30T03:15:23.909Z,79.13
2022-07-30T03:17:55.591Z,79.47
2022-07-30T03:20:29.064Z,79.32
2022-07-30T03:22:59.569Z,79.38
2022-07-30T03:25:30.613Z,80.03
2022-07-30T03:28:03.789Z,79.87
2022-07-30T03:30:34.393Z,80.38
2022-07-30T03:33:02.762Z,80.06
2022-07-30T03:35:31.505Z,80.27
2022-07-30T03:38:00.921Z,80.14
2022-07-30T03:40:30.320Z,81.06
2022-07-30T03:42:58.891Z,81.01
2022-07-30T03:45:28.881Z,80.85
2022-07-30T03:48:05.049Z,80.52
2022-07-30T03:50:36.356Z,81.00
2022-07-30T03:53:05.473Z,81.11
2022-07-30T03:55:36.300Z,81.08
2022-07-30T03:58:39.741Z,81.15
2022-07-30T04:01:09.708Z,81.05
2022-07-30T04:03:37.696Z,81.15
2022-07-30T04:06:07.224Z,81.69
2022-07-30T04:08:34.966Z,81.57
2022-07-30T04:11:03.864Z,81.66
2022-07-30T04:13:49.182Z,81.79
2022-07-30T04:16:41.096Z,81.64
2022-07-30T04:19:17.383Z,81.69
2022-07-30T04:21:47.579Z,81.64
2022-07-30T04:24:16.920Z,81.99
2022-07-30T04:26:47.142Z,81.53
2022-07-30T04:29:22.591Z,82.18
2022-07-30T04:31:55.205Z,82.27
2022-07-30T04:34:34.826Z,82.20
2022-07-30T04:37:04.683Z,81.58
2022-07-30T04:39:32.584Z,81.63
2022-07-30T04:42:00.219Z,81.58
2022-07-30T04:44:37.948Z,82.75
2022-07-30T04:47:45.468Z,80.69
2022-07-30T04:50:25.491Z,80.65
2022-07-30T04:52:56.146Z,80.47
2022-07-30T04:55:30.386Z,80.86
2022-07-30T04:58:00.646Z,80.39
2022-07-30T05:00:38.995Z,79.41
2022-07-30T05:03:14.006Z,79.46
2022-07-30T05:05:46.580Z,79.51
2022-07-30T05:08:14.609Z,79.92
2022-07-30T05:10:42.416Z,78.95
2022-07-30T05:13:13.427Z,78.96
2022-07-30T05:15:44.627Z,78.95
2022-07-30T05:18:16.242Z,78.73
2022-07-30T05:20:44.952Z,77.47
2022-07-30T05:23:36.068Z,77.59
2022-07-30T05:26:20.202Z,77.57
2022-07-30T05:28:53.867Z,76.92
2022-07-30T05:31:29.325Z,76.00
2022-07-30T05:34:03.822Z,74.96
2022-07-30T05:36:41.066Z,75.02
2022-07-30T05:39:09.303Z,75.09
2022-07-30T05:41:45.938Z,75.13
2022-07-30T05:44:22.084Z,74.39
2022-07-30T05:46:52.802Z,74.29
2022-07-30T05:49:22.051Z,73.92
2022-07-30T05:51:50.580Z,73.86
2022-07-30T05:54:18.925Z,73.65
2022-07-30T05:57:09.789Z,73.59
2022-07-30T05:59:41.282Z,72.99
2022-07-30T06:02:10.555Z,72.98
2022-07-30T06:05:02.155Z,72.44
2022-07-30T06:07:30.029Z,72.19
2022-07-30T06:10:01.522Z,71.72
2022-07-30T06:12:30.186Z,71.30
2022-07-30T06:14:58.346Z,71.13
2022-07-30T06:17:39.727Z,71.02
2022-07-30T06:20:18.405Z,70.48
2022-07-30T06:22:58.002Z,70.23
2022-07-30T06:25:44.779Z,69.36
2022-07-30T06:28:35.938Z,68.85
2022-07-30T06:31:02.433Z,67.99
2022-07-30T06:33:30.594Z,67.92
2022-07-30T06:35:59.746Z,67.33
2022-07-30T06:38:30.757Z,67.10
2022-07-30T06:41:04.785Z,66.50
2022-07-30T06:43:51.883Z,65.05
2022-07-30T06:46:51.609Z,59.27
2022-07-30T06:49:21.454Z,57.98
2022-07-30T06:51:50.525Z,57.59
2022-07-30T06:54:18.289Z,56.50
2022-07-30T06:57:02.468Z,54.77
2022-07-30T06:59:30.650Z,54.90
2022-07-30T07:02:03.926Z,54.21
2022-07-30T07:04:36.140Z,54.54
2022-07-30T07:07:12.723Z,53.85
2022-07-30T07:09:44.752Z,53.12
2022-07-30T07:12:31.135Z,53.12
2022-07-30T07:14:59.911Z,52.58
2022-07-30T07:17:27.534Z,52.59
2022-07-30T07:19:59.753Z,53.43
2022-07-30T07:22:33.510Z,53.56
2022-07-30T07:25:01.120Z,53.84
2022-07-30T07:27:32.084Z,53.81
2022-07-30T07:30:05.959Z,54.63
2022-07-30T07:32:37.063Z,53.33
2022-07-30T07:35:06.623Z,54.17
2022-07-30T07:37:37.968Z,53.92
2022-07-30T07:40:08.429Z,53.56
2022-07-30T07:42:41.282Z,53.98
2022-07-30T07:45:09.763Z,53.53
2022-07-30T07:48:00.725Z,54.19
2022-07-30T07:50:51.632Z,53.62
2022-07-30T07:53:26.777Z,53.62
2022-07-30T07:55:54.496Z,53.01
2022-07-30T07:58:26.223Z,52.09
2022-07-30T08:00:57.452Z,52.08
2022-07-30T08:03:43.303Z,51.99
2022-07-30T08:06:30.880Z,52.19
2022-07-30T08:09:19.821Z,51.75
2022-07-30T08:12:08.102Z,51.60
2022-07-30T08:15:09.350Z,51.44
2022-07-30T08:17:55.701Z,51.66
2022-07-30T08:20:37.802Z,51.55
2022-07-30T08:23:05.517Z,51.71
2022-07-30T08:25:34.796Z,49.74
2022-07-30T08:28:03.284Z,48.96
2022-07-30T08:30:31.432Z,49.85
2022-07-30T08:32:59.149Z,50.00
2022-07-30T08:35:26.914Z,49.18
2022-07-30T08:37:54.562Z,48.68
2022-07-30T08:40:26.926Z,48.24
2022-07-30T08:43:06.369Z,48.57
2022-07-30T08:45:35.423Z,48.12
2022-07-30T08:48:26.286Z,47.68
2022-07-30T08:50:54.677Z,44.30
2022-07-30T08:53:37.431Z,42.60
2022-07-30T08:56:07.707Z,43.78
2022-07-30T08:58:38.422Z,44.88
2022-07-30T09:01:07.592Z,43.91
2022-07-30T09:03:44.384Z,41.87
2022-07-30T09:06:12.680Z,41.93
2022-07-30T09:08:42.459Z,41.24
2022-07-30T09:11:10.352Z,41.29
2022-07-30T09:13:41.632Z,40.61
2022-07-30T09:16:20.405Z,40.78
2022-07-30T09:18:48.851Z,39.42
2022-07-30T09:21:19.084Z,40.36
2022-07-30T09:23:58.624Z,40.11
2022-07-30T09:26:56.265Z,40.09
2022-07-30T09:29:44.220Z,39.07
2022-07-30T09:32:48.663Z,39.03
2022-07-30T09:35:45.260Z,40.08
2022-07-30T09:38:13.597Z,38.76
2022-07-30T09:41:12.207Z,38.98
2022-07-30T09:43:52.233Z,38.55
2022-07-30T09:46:42.476Z,38.16
2022-07-30T09:49:15.594Z,38.84
2022-07-30T09:51:56.716Z,38.52
2022-07-30T09:54:26.493Z,38.44
2022-07-30T09:57:25.946Z,38.27
2022-07-30T09:59:59.733Z,39.05
2022-07-30T10:02:33.657Z,39.51
2022-07-30T10:05:28.467Z,39.90
2022-07-30T10:07:59.095Z,39.72
2022-07-30T10:10:29.489Z,39.14
2022-07-30T10:13:04.535Z,38.69
2022-07-30T10:15:35.649Z,38.40
2022-07-30T10:18:07.447Z,38.14
2022-07-30T10:20:51.396Z,38.73
2022-07-30T10:23:50.703Z,37.81
2022-07-30T10:26:48.162Z,37.27
2022-07-30T10:29:34.815Z,36.88
2022-07-30T10:32:03.371Z,37.33
2022-07-30T10:34:34.485Z,37.87
2022-07-30T10:37:07.482Z,37.45
2022-07-30T10:39:38.341Z,37.63
2022-07-30T10:42:16.248Z,36.82
2022-07-30T10:45:01.614Z,36.77
2022-07-30T10:47:33.484Z,36.99
2022-07-30T10:50:10.546Z,36.39
2022-07-30T10:52:50.381Z,36.18
2022-07-30T10:55:20.864Z,35.87
2022-07-30T10:58:07.230Z,36.00
2022-07-30T11:00:37.397Z,35.13
2022-07-30T11:03:16.016Z,36.36
2022-07-30T11:05:47.960Z,37.04
2022-07-30T11:08:37.007Z,35.95
2022-07-30T11:11:19.848Z,36.86
2022-07-30T11:13:54.571Z,36.64
2022-07-30T11:16:23.950Z,36.85
2022-07-30T11:22:31.363Z,34.88
2022-07-30T11:25:00.583Z,36.32
2022-07-30T11:27:41.257Z,35.62
2022-07-30T11:30:35.226Z,34.71
2022-07-30T11:33:33.189Z,34.01
2022-07-30T11:36:10.415Z,34.31
2022-07-30T11:39:05.273Z,32.25
2022-07-30T11:41:34.697Z,32.47
2022-07-30T11:44:28.450Z,33.01
2022-07-30T11:46:56.497Z,32.14
2022-07-30T11:49:24.165Z,31.56
2022-07-30T11:51:51.880Z,30.57
2022-07-30T11:54:20.792Z,31.62
2022-07-30T11:56:53.200Z,31.65
2022-07-30T11:59:20.799Z,32.03
2022-07-30T12:01:53.255Z,31.73
2022-07-30T12:04:20.898Z,29.87
2022-07-30T12:06:49.551Z,28.97
2022-07-30T12:09:27.422Z,29.31
2022-07-30T12:11:55.659Z,30.17
2022-07-30T12:14:23.616Z,30.46
2022-07-30T12:16:52.214Z,29.08
2022-07-30T12:19:19.863Z,30.63
2022-07-30T12:21:52.546Z,30.44
2022-07-30T12:24:27.135Z,29.80
2022-07-30T12:27:05.436Z,30.79
2022-07-30T12:29:34.090Z,30.06
2022-07-30T12:32:02.176Z,30.14
2022-07-30T12:34:29.817Z,29.43
2022-07-30T12:37:08.082Z,28.56
2022-07-30T12:39:37.075Z,28.37
2022-07-30T12:42:05.270Z,28.27
2022-07-30T12:44:37.722Z,27.65
2022-07-30T12:47:07.455Z,26.32
2022-07-30T12:49:39.502Z,25.33
2022-07-30T12:52:28.628Z,27.22
2022-07-30T12:55:09.808Z,26.15
2022-07-30T12:57:54.024Z,26.04
2022-07-30T13:00:22.427Z,25.46
2022-07-30T13:02:50.060Z,25.15
2022-07-30T13:05:17.668Z,24.05
2022-07-30T13:07:56.380Z,22.76
2022-07-30T13:10:30.417Z,22.95
2022-07-30T13:12:58.884Z,21.73
2022-07-30T13:15:26.715Z,22.39
2022-07-30T13:17:54.389Z,23.69
2022-07-30T13:20:22.553Z,23.36
2022-07-30T13:22:50.213Z,24.20
2022-07-30T13:25:18.005Z,24.13
2022-07-30T13:27:47.011Z,24.40
2022-07-30T13:30:15.524Z,25.01
2022-07-30T13:32:43.151Z,26.15
2022-07-30T13:35:10.819Z,25.04
2022-07-30T13:37:38.839Z,24.52
2022-07-30T13:40:07.496Z,24.31
2022-07-30T13:42:35.457Z,22.75
2022-07-30T13:45:04.864Z,22.61
2022-07-30T13:47:32.503Z,21.35
2022-07-30T13:50:00.157Z,21.39
2022-07-30T13:52:27.796Z,23.10
2022-07-30T13:54:55.424Z,24.80
2022-07-30T13:57:23.046Z,25.86
2022-07-30T13:59:50.677Z,25.71
2022-07-30T14:02:20.597Z,25.10
2022-07-30T14:04:48.265Z,24.68
2022-07-30T14:07:15.987Z,23.77
2022-07-30T14:09:44.635Z,24.04
2022-07-30T14:12:14.824Z,22.45
2022-07-30T14:14:42.482Z,21.08
2022-07-30T14:17:10.171Z,19.54
2022-07-30T14:19:39.136Z,22.25
2022-07-30T14:22:06.812Z,21.53
2022-07-30T14:24:34.536Z,21.46
2022-07-30T14:27:02.374Z,21.13
2022-07-30T14:29:30.179Z,21.38
2022-07-30T14:31:57.848Z,23.23
2022-07-30T14:34:25.581Z,22.93
2022-07-30T14:36:54.593Z,25.51
2022-07-30T14:39:23.724Z,26.38
2022-07-30T14:41:54.070Z,26.27
2022-07-30T14:44:23.727Z,26.54
2022-07-30T14:46:52.213Z,25.63
2022-07-30T14:49:20.375Z,25.55
2022-07-30T14:51:48.151Z,25.52
2022-07-30T14:54:17.151Z,25.39
2022-07-30T14:56:44.825Z,23.55
2022-07-30T14:59:12.605Z,21.23
2022-07-30T15:01:41.778Z,18.43
2022-07-30T15:04:11.470Z,17.74
2022-07-30T15:06:40.741Z,16.70
2022-07-30T15:09:08.916Z,15.33
2022-07-30T15:12:04.210Z,16.35
2022-07-30T15:14:26.890Z,17.92
2022-07-30T15:16:59.357Z,20.60
2022-07-30T15:19:31.088Z,18.39
2022-07-30T15:21:58.975Z,17.79
2022-07-30T15:24:26.981Z,16.59
2022-07-30T15:26:56.595Z,18.36
2022-07-30T15:29:27.151Z,17.22
2022-07-30T15:31:55.186Z,16.89
2022-07-30T15:34:22.834Z,16.54
2022-07-30T15:36:50.509Z,16.62
2022-07-30T15:39:18.172Z,16.77
2022-07-30T15:41:45.994Z,16.36
2022-07-30T15:44:15.024Z,18.64
2022-07-30T15:46:42.696Z,18.90
2022-07-30T15:49:10.586Z,18.32
2022-07-30T15:51:38.355Z,16.58
2022-07-30T15:54:06.675Z,16.33
2022-07-30T15:56:35.296Z,16.37
2022-07-30T15:59:02.894Z,16.75
2022-07-30T16:01:31.916Z,15.83
2022-07-30T16:03:59.552Z,15.41
2022-07-30T16:06:27.214Z,17.18
2022-07-30T16:08:54.811Z,18.24
2022-07-30T16:11:22.396Z,18.96
2022-07-30T16:13:50.107Z,18.63
2022-07-30T16:16:17.765Z,17.28
2022-07-30T16:18:46.701Z,17.54
2022-07-30T16:21:17.791Z,17.11
2022-07-30T16:23:45.738Z,15.41
2022-07-30T16:26:13.795Z,15.00
2022-07-30T16:28:41.450Z,16.03
2022-07-30T16:31:09.090Z,16.84
2022-07-30T16:33:37.692Z,17.38
2022-07-30T16:36:07.179Z,17.56
2022-07-30T16:38:34.813Z,17.08
2022-07-30T16:41:02.554Z,17.17
2022-07-30T16:43:31.761Z,17.13
2022-07-30T16:45:59.671Z,16.15
2022-07-30T16:48:27.770Z,17.54
2022-07-30T16:50:55.588Z,19.50
2022-07-30T16:53:24.533Z,18.64
2022-07-30T16:55:52.142Z,17.26
2022-07-30T16:58:21.407Z,16.78
2022-07-30T17:00:56.243Z,16.95
2022-07-30T17:03:25.194Z,16.67
2022-07-30T17:05:52.903Z,18.34
2022-07-30T17:08:25.063Z,18.34
2022-07-30T17:10:54.427Z,19.09
2022-07-30T17:13:25.130Z,18.87
2022-07-30T17:15:52.732Z,19.72
2022-07-30T17:18:20.307Z,19.81
2022-07-30T17:20:47.966Z,20.33
2022-07-30T17:23:15.571Z,20.41
2022-07-30T17:25:43.256Z,21.16
2022-07-30T17:28:12.226Z,21.67
2022-07-30T17:30:39.904Z,21.88
2022-07-30T17:33:07.500Z,22.14
2022-07-30T17:35:35.209Z,22.67
2022-07-30T17:38:02.816Z,22.90
2022-07-30T17:40:31.874Z,23.02
2022-07-30T17:43:03.552Z,23.15
2022-07-30T17:45:32.761Z,23.82
2022-07-30T17:48:01.373Z,24.38
2022-07-30T17:50:29.128Z,24.15
2022-07-30T17:52:56.824Z,24.29
2022-07-30T17:55:24.686Z,24.50
2022-07-30T17:57:52.350Z,25.33
2022-07-30T18:00:20.100Z,25.53
2022-07-30T18:02:49.194Z,25.38
2022-07-30T18:05:16.829Z,23.31
2022-07-30T18:07:44.709Z,22.96
2022-07-30T18:10:13.688Z,22.60
2022-07-30T18:12:48.596Z,23.09
2022-07-30T18:15:17.787Z,23.56
2022-07-30T18:17:45.986Z,23.63
2022-07-30T18:20:15.627Z,23.97
2022-07-30T18:22:43.413Z,24.11
2022-07-30T18:25:18.491Z,24.16
2022-07-30T18:27:47.096Z,24.84
2022-07-30T18:30:14.886Z,26.31
2022-07-30T18:32:42.566Z,25.37
2022-07-30T18:35:14.186Z,27.51
2022-07-30T18:37:45.285Z,28.79
2022-07-30T18:40:14.424Z,29.74
2022-07-30T18:42:42.782Z,28.76
2022-07-30T18:45:14.417Z,29.79
2022-07-30T18:47:42.296Z,30.25
2022-07-30T18:50:10.848Z,31.64
2022-07-30T18:52:38.949Z,32.17
2022-07-30T18:55:11.219Z,32.62
2022-07-30T18:57:39.021Z,32.61
2022-07-30T19:00:09.621Z,32.99
2022-07-30T19:02:38.210Z,33.62
2022-07-30T19:05:07.910Z,34.63
2022-07-30T19:07:55.468Z,34.51
2022-07-30T19:10:26.649Z,34.57
2022-07-30T19:12:55.014Z,34.77
2022-07-30T19:15:22.734Z,35.27
2022-07-30T19:17:51.258Z,35.70
2022-07-30T19:20:19.318Z,35.70
2022-07-30T19:22:47.354Z,36.29
2022-07-30T19:25:15.205Z,37.14
2022-07-30T19:27:44.238Z,36.81
2022-07-30T19:30:13.165Z,36.83
2022-07-30T19:32:41.117Z,37.21
2022-07-30T19:35:13.332Z,38.38
2022-07-30T19:37:41.755Z,38.21
2022-07-30T19:40:10.561Z,38.30
2022-07-30T19:42:41.509Z,39.71
2022-07-30T19:45:13.304Z,39.83
2022-07-30T19:47:42.531Z,39.78
2022-07-30T19:50:11.119Z,40.49
2022-07-30T19:52:39.851Z,40.00
2022-07-30T19:55:31.109Z,39.89
2022-07-30T19:57:56.401Z,40.12
2022-07-30T20:00:25.531Z,39.95
2022-07-30T20:02:54.059Z,40.25
2022-07-30T20:05:24.686Z,41.16
2022-07-30T20:07:52.804Z,41.76
2022-07-30T20:10:20.596Z,42.42
2022-07-30T20:12:50.188Z,42.22
2022-07-30T20:15:18.098Z,42.09
2022-07-30T20:17:47.068Z,42.18
2022-07-30T20:20:15.334Z,42.58
2022-07-30T20:22:43.153Z,42.75
2022-07-30T20:25:11.881Z,42.26
2022-07-30T20:27:41.241Z,42.98
2022-07-30T20:30:12.029Z,43.07
2022-07-30T20:32:46.344Z,42.90
2022-07-30T20:35:15.931Z,43.87
2022-07-30T20:37:55.520Z,44.06
2022-07-30T20:40:26.506Z,44.43
2022-07-30T20:42:55.433Z,44.01
2022-07-30T20:45:24.725Z,43.98
2022-07-30T20:47:55.946Z,43.62
2022-07-30T20:50:30.611Z,43.51
2022-07-30T20:52:59.511Z,44.03
2022-07-30T20:55:27.710Z,44.48
2022-07-30T20:58:06.982Z,44.85
2022-07-30T21:00:41.969Z,45.95
2022-07-30T21:03:17.410Z,45.52
2022-07-30T21:05:46.735Z,45.05
2022-07-30T21:08:15.637Z,45.04
2022-07-30T21:10:46.161Z,46.28
2022-07-30T21:13:13.831Z,46.77
2022-07-30T21:15:45.601Z,46.75
2022-07-30T21:18:29.442Z,46.92
2022-07-30T21:21:00.617Z,47.24
2022-07-30T21:23:28.421Z,46.39
2022-07-30T21:26:03.054Z,46.73
2022-07-30T21:28:35.544Z,47.72
2022-07-30T21:31:04.182Z,46.91
2022-07-30T21:33:36.178Z,46.50
2022-07-30T21:36:10.350Z,47.19
2022-07-30T21:38:39.124Z,47.68
2022-07-30T21:41:14.506Z,47.46
2022-07-30T21:43:43.785Z,48.11
2022-07-30T21:46:13.050Z,48.08
2022-07-30T21:48:40.995Z,47.74
2022-07-30T21:51:10.625Z,47.74
2022-07-30T21:56:26.393Z,48.24
2022-07-30T21:58:54.031Z,48.48
2022-07-30T22:01:22.746Z,48.12
2022-07-30T22:04:01.414Z,48.60
2022-07-30T22:06:36.530Z,49.15
2022-07-30T22:09:18.896Z,49.29
2022-07-30T22:11:55.468Z,49.58
2022-07-30T22:14:23.271Z,50.11
2022-07-30T22:16:53.326Z,50.27
2022-07-30T22:19:22.295Z,50.61
2022-07-30T22:21:51.767Z,50.42
2022-07-30T22:24:28.878Z,50.28
2022-07-30T22:26:59.972Z,51.01
2022-07-30T22:29:34.219Z,51.07
2022-07-30T22:32:03.901Z,50.94
2022-07-30T22:34:32.061Z,51.20
2022-07-30T22:37:01.112Z,51.00
2022-07-30T22:39:31.934Z,51.43
2022-07-30T22:42:16.566Z,51.70
2022-07-30T22:44:46.258Z,52.02
2022-07-30T22:47:21.213Z,52.31
2022-07-30T22:50:03.585Z,52.27
2022-07-30T22:52:37.878Z,52.12
2022-07-30T22:55:09.147Z,52.09
2022-07-30T22:57:38.403Z,52.01
2022-07-30T23:00:13.098Z,52.17
2022-07-30T23:02:41.508Z,52.52
2022-07-30T23:05:10.308Z,53.13
2022-07-30T23:07:40.390Z,53.40
2022-07-30T23:10:17.106Z,53.72
2022-07-30T23:12:32.057Z,48.00
2022-07-30T23:12:51.066Z,53.95
2022-07-30T23:15:19.702Z,54.15
2022-07-30T23:17:47.541Z,54.65
2022-07-30T23:20:17.849Z,54.41
2022-07-30T23:22:47.061Z,54.46
2022-07-30T23:25:15.903Z,54.96
2022-07-30T23:27:43.638Z,55.38
2022-07-30T23:30:12.439Z,55.68
2022-07-30T23:32:40.761Z,55.66
2022-07-30T23:35:09.827Z,55.50
2022-07-30T23:37:48.158Z,55.67
2022-07-30T23:40:19.197Z,56.03
2022-07-30T23:42:47.125Z,56.50
2022-07-30T23:45:14.897Z,56.99
2022-07-30T23:47:56.536Z,57.60
2022-07-30T23:50:30.380Z,57.70
2022-07-30T23:52:58.149Z,57.95
2022-07-30T23:55:27.928Z,58.04
2022-07-30T23:57:55.847Z,58.17
